createdAt,value
2023-05-18T00:00:58.409Z,10.10
2023-05-18T00:01:58.393Z,10.12
2023-05-18T00:02:58.516Z,10.17
2023-05-18T00:03:58.522Z,10.16
2023-05-18T00:04:58.364Z,10.08
2023-05-18T00:05:58.365Z,9.93
2023-05-18T00:06:58.365Z,9.96
2023-05-18T00:07:58.360Z,9.96
2023-05-18T00:08:58.351Z,9.90
2023-05-18T00:09:58.350Z,9.88
2023-05-18T00:10:58.350Z,9.98
2023-05-18T00:11:58.324Z,9.98
2023-05-18T00:12:58.318Z,9.94
2023-05-18T00:13:58.303Z,9.94
2023-05-18T00:14:58.293Z,9.93
2023-05-18T00:15:58.297Z,9.98
2023-05-18T00:16:58.283Z,10.05
2023-05-18T00:17:58.310Z,10.03
2023-05-18T00:18:58.298Z,10.08
2023-05-18T00:19:58.252Z,10.08
2023-05-18T00:20:58.247Z,10.05
2023-05-18T00:21:58.232Z,9.93
2023-05-18T00:22:58.229Z,9.75
2023-05-18T00:23:58.221Z,9.59
2023-05-18T00:24:58.224Z,9.50
2023-05-18T00:25:58.209Z,9.40
2023-05-18T00:26:58.194Z,9.24
2023-05-18T00:27:58.193Z,9.32
2023-05-18T00:28:58.185Z,9.27
2023-05-18T00:29:58.196Z,9.18
2023-05-18T00:30:58.167Z,9.15
2023-05-18T00:31:58.250Z,9.27
2023-05-18T00:32:58.203Z,9.24
2023-05-18T00:33:58.146Z,9.32
2023-05-18T00:34:58.129Z,9.45
2023-05-18T00:35:58.138Z,9.48
2023-05-18T00:36:58.122Z,9.54
2023-05-18T00:37:58.119Z,9.55
2023-05-18T00:38:58.105Z,9.51
2023-05-18T00:39:58.098Z,9.54
2023-05-18T00:40:58.084Z,9.51
2023-05-18T00:41:58.091Z,9.45
2023-05-18T00:42:58.064Z,9.37
2023-05-18T00:43:58.061Z,9.41
2023-05-18T00:44:58.055Z,9.36
2023-05-18T00:45:58.064Z,9.40
2023-05-18T00:46:58.050Z,9.41
2023-05-18T00:47:58.037Z,9.48
2023-05-18T00:48:58.021Z,9.51
2023-05-18T00:49:58.016Z,9.52
2023-05-18T00:50:58.006Z,9.57
2023-05-18T00:51:57.999Z,9.50
2023-05-18T00:52:57.992Z,9.44
2023-05-18T00:53:57.986Z,9.55
2023-05-18T00:54:57.969Z,9.37
2023-05-18T00:55:57.968Z,9.27
2023-05-18T00:56:57.954Z,9.30
2023-05-18T00:57:57.957Z,9.33
2023-05-18T00:58:57.947Z,9.29
2023-05-18T00:59:57.941Z,9.15
2023-05-18T01:00:57.956Z,9.18
2023-05-18T01:01:57.943Z,9.26
2023-05-18T01:02:58.044Z,9.30
2023-05-18T01:03:57.904Z,9.36
2023-05-18T01:04:57.897Z,9.37
2023-05-18T01:05:57.890Z,9.45
2023-05-18T01:06:57.871Z,9.27
2023-05-18T01:07:57.877Z,9.26
2023-05-18T01:08:57.872Z,9.26
2023-05-18T01:09:57.858Z,9.29
2023-05-18T01:10:57.861Z,9.32
2023-05-18T01:11:57.830Z,9.34
2023-05-18T01:12:57.838Z,9.30
2023-05-18T01:13:57.817Z,9.26
2023-05-18T01:14:57.795Z,9.30
2023-05-18T01:15:57.808Z,9.22
2023-05-18T01:16:57.867Z,9.22
2023-05-18T01:17:57.825Z,9.27
2023-05-18T01:18:57.808Z,9.26
2023-05-18T01:19:57.776Z,9.04
2023-05-18T01:20:57.773Z,9.03
2023-05-18T01:21:57.743Z,9.12
2023-05-18T01:22:57.734Z,8.98
2023-05-18T01:23:57.731Z,9.03
2023-05-18T01:24:57.718Z,9.09
2023-05-18T01:25:57.720Z,8.90
2023-05-18T01:26:57.719Z,9.01
2023-05-18T01:27:57.697Z,8.93
2023-05-18T01:28:57.684Z,8.95
2023-05-18T01:29:57.683Z,9.01
2023-05-18T01:30:57.721Z,8.96
2023-05-18T01:31:57.671Z,8.98
2023-05-18T01:32:57.681Z,8.96
2023-05-18T01:33:57.651Z,9.01
2023-05-18T01:34:57.639Z,8.95
2023-05-18T01:35:57.627Z,9.01
2023-05-18T01:36:57.621Z,8.99
2023-05-18T01:37:57.615Z,9.08
2023-05-18T01:38:57.599Z,9.12
2023-05-18T01:39:57.596Z,9.08
2023-05-18T01:40:57.595Z,9.18
2023-05-18T01:41:57.582Z,9.11
2023-05-18T01:42:57.570Z,9.09
2023-05-18T01:43:57.561Z,9.19
2023-05-18T01:44:57.555Z,9.11
2023-05-18T01:45:57.624Z,9.16
2023-05-18T01:46:57.533Z,9.09
2023-05-18T01:47:57.603Z,9.14
2023-05-18T01:48:57.518Z,9.14
2023-05-18T01:49:57.504Z,9.16
2023-05-18T01:50:57.507Z,9.15
2023-05-18T01:51:57.494Z,9.19
2023-05-18T01:52:57.484Z,9.08
2023-05-18T01:53:57.480Z,9.04
2023-05-18T01:54:57.477Z,9.14
2023-05-18T01:55:57.465Z,8.95
2023-05-18T01:56:57.449Z,9.03
2023-05-18T01:57:57.444Z,9.01
2023-05-18T01:58:57.442Z,8.99
2023-05-18T01:59:57.426Z,8.95
2023-05-18T02:00:57.425Z,8.96
2023-05-18T02:01:59.372Z,8.99
2023-05-18T02:02:57.477Z,8.96
2023-05-18T02:03:57.558Z,8.98
2023-05-18T02:04:57.380Z,8.93
2023-05-18T02:05:57.375Z,9.04
2023-05-18T02:06:57.373Z,9.03
2023-05-18T02:07:57.373Z,9.04
2023-05-18T02:08:57.350Z,9.08
2023-05-18T02:09:57.337Z,9.12
2023-05-18T02:10:57.326Z,9.14
2023-05-18T02:11:57.327Z,9.09
2023-05-18T02:12:57.322Z,9.12
2023-05-18T02:13:57.306Z,9.19
2023-05-18T02:14:57.301Z,9.08
2023-05-18T02:15:57.307Z,9.06
2023-05-18T02:16:57.283Z,9.11
2023-05-18T02:17:57.309Z,9.11
2023-05-18T02:18:57.326Z,9.09
2023-05-18T02:19:57.260Z,9.15
2023-05-18T02:20:57.250Z,9.09
2023-05-18T02:21:57.233Z,9.04
2023-05-18T02:22:57.231Z,8.98
2023-05-18T02:23:57.214Z,8.96
2023-05-18T02:24:57.206Z,8.99
2023-05-18T02:25:57.199Z,8.95
2023-05-18T02:26:57.199Z,9.04
2023-05-18T02:27:57.186Z,8.99
2023-05-18T02:28:57.176Z,8.92
2023-05-18T02:29:57.164Z,8.95
2023-05-18T02:30:57.157Z,8.96
2023-05-18T02:31:57.172Z,8.96
2023-05-18T02:32:57.187Z,9.03
2023-05-18T02:33:57.133Z,8.89
2023-05-18T02:34:57.114Z,8.88
2023-05-18T02:35:57.254Z,8.96
2023-05-18T02:36:57.108Z,8.95
2023-05-18T02:37:57.097Z,8.98
2023-05-18T02:38:57.090Z,8.98
2023-05-18T02:39:57.088Z,9.03
2023-05-18T02:40:57.075Z,8.99
2023-05-18T02:41:57.069Z,9.03
2023-05-18T02:42:57.054Z,8.96
2023-05-18T02:43:57.063Z,9.04
2023-05-18T02:44:57.033Z,8.93
2023-05-18T02:45:57.053Z,8.96
2023-05-18T02:46:57.018Z,8.95
2023-05-18T02:47:57.118Z,9.01
2023-05-18T02:48:57.005Z,8.96
2023-05-18T02:49:56.997Z,8.83
2023-05-18T02:50:57.000Z,8.70
2023-05-18T02:51:56.978Z,8.59
2023-05-18T02:52:56.985Z,8.50
2023-05-18T02:53:56.960Z,8.56
2023-05-18T02:54:56.965Z,8.56
2023-05-18T02:55:56.940Z,8.53
2023-05-18T02:56:57.036Z,8.37
2023-05-18T02:57:56.970Z,8.46
2023-05-18T02:58:56.916Z,8.46
2023-05-18T02:59:56.909Z,8.44
2023-05-18T03:00:56.932Z,8.52
2023-05-18T03:01:56.886Z,8.57
2023-05-18T03:02:56.918Z,8.59
2023-05-18T03:03:56.893Z,8.55
2023-05-18T03:04:56.873Z,8.52
2023-05-18T03:05:56.858Z,8.55
2023-05-18T03:06:56.849Z,8.59
2023-05-18T03:07:56.862Z,8.67
2023-05-18T03:08:56.831Z,8.65
2023-05-18T03:09:56.830Z,8.74
2023-05-18T03:10:56.817Z,8.74
2023-05-18T03:11:56.820Z,8.83
2023-05-18T03:12:56.802Z,8.81
2023-05-18T03:13:56.789Z,8.77
2023-05-18T03:14:56.777Z,8.68
2023-05-18T03:15:56.779Z,8.67
2023-05-18T03:16:56.828Z,8.68
2023-05-18T03:17:56.798Z,8.53
2023-05-18T03:18:56.786Z,8.42
2023-05-18T03:19:56.733Z,8.32
2023-05-18T03:20:56.722Z,8.21
2023-05-18T03:21:56.724Z,8.09
2023-05-18T03:22:56.704Z,8.04
2023-05-18T03:23:56.786Z,7.99
2023-05-18T03:24:56.691Z,7.91
2023-05-18T03:25:56.674Z,7.94
2023-05-18T03:26:56.683Z,8.04
2023-05-18T03:27:56.671Z,8.05
2023-05-18T03:28:56.652Z,8.16
2023-05-18T03:29:56.645Z,8.13
2023-05-18T03:30:56.669Z,8.14
2023-05-18T03:31:56.685Z,8.26
2023-05-18T03:32:56.655Z,8.28
2023-05-18T03:33:56.612Z,8.26
2023-05-18T03:34:56.601Z,8.34
2023-05-18T03:35:56.596Z,8.26
2023-05-18T03:36:56.593Z,8.29
2023-05-18T03:37:56.574Z,8.38
2023-05-18T03:38:56.585Z,8.31
2023-05-18T03:39:56.610Z,8.42
2023-05-18T03:40:56.552Z,8.34
2023-05-18T03:41:56.551Z,8.34
2023-05-18T03:42:56.534Z,8.32
2023-05-18T03:43:56.544Z,8.32
2023-05-18T03:44:56.505Z,8.32
2023-05-18T03:45:56.541Z,8.32
2023-05-18T03:46:56.501Z,8.49
2023-05-18T03:47:56.515Z,8.37
2023-05-18T03:48:56.488Z,8.35
2023-05-18T03:49:56.463Z,8.35
2023-05-18T03:50:56.468Z,8.31
2023-05-18T03:51:56.471Z,8.38
2023-05-18T03:52:56.469Z,8.34
2023-05-18T03:53:56.429Z,8.24
2023-05-18T03:54:56.432Z,8.26
2023-05-18T03:55:56.416Z,8.26
2023-05-18T03:56:56.410Z,8.16
2023-05-18T03:57:56.398Z,8.23
2023-05-18T03:58:56.386Z,8.14
2023-05-18T03:59:56.384Z,8.14
2023-05-18T04:00:56.380Z,8.21
2023-05-18T04:01:56.450Z,8.23
2023-05-18T04:02:56.463Z,8.31
2023-05-18T04:03:56.644Z,8.24
2023-05-18T04:04:56.333Z,8.21
2023-05-18T04:05:56.335Z,8.21
2023-05-18T04:06:56.312Z,8.31
2023-05-18T04:07:56.305Z,8.29
2023-05-18T04:08:56.283Z,8.26
2023-05-18T04:09:56.284Z,8.26
2023-05-18T04:10:56.272Z,8.20
2023-05-18T04:11:56.266Z,8.14
2023-05-18T04:12:56.261Z,8.09
2023-05-18T04:13:56.244Z,8.06
2023-05-18T04:14:56.249Z,8.10
2023-05-18T04:15:56.259Z,8.17
2023-05-18T04:16:56.269Z,8.09
2023-05-18T04:17:56.254Z,8.09
2023-05-18T04:18:56.226Z,8.05
2023-05-18T04:19:56.197Z,8.02
2023-05-18T04:20:56.177Z,8.02
2023-05-18T04:21:56.174Z,8.02
2023-05-18T04:22:56.168Z,8.04
2023-05-18T04:23:56.157Z,8.06
2023-05-18T04:24:56.154Z,7.99
2023-05-18T04:25:56.138Z,7.87
2023-05-18T04:26:56.137Z,7.91
2023-05-18T04:27:56.133Z,7.99
2023-05-18T04:28:56.114Z,7.91
2023-05-18T04:29:56.100Z,8.05
2023-05-18T04:30:56.096Z,8.10
2023-05-18T04:31:56.098Z,8.02
2023-05-18T04:32:56.102Z,7.98
2023-05-18T04:33:56.063Z,7.91
2023-05-18T04:34:56.054Z,7.91
2023-05-18T04:35:56.068Z,7.88
2023-05-18T04:36:56.074Z,7.88
2023-05-18T04:37:56.026Z,7.92
2023-05-18T04:38:56.025Z,7.77
2023-05-18T04:39:56.004Z,7.78
2023-05-18T04:40:55.994Z,7.80
2023-05-18T04:41:55.986Z,7.81
2023-05-18T04:42:55.978Z,7.83
2023-05-18T04:43:56.056Z,7.83
2023-05-18T04:44:55.965Z,7.83
2023-05-18T04:45:55.969Z,7.83
2023-05-18T04:46:55.946Z,7.84
2023-05-18T04:47:55.988Z,7.98
2023-05-18T04:48:55.986Z,7.96
2023-05-18T04:49:55.925Z,8.09
2023-05-18T04:50:55.913Z,8.02
2023-05-18T04:51:55.895Z,8.05
2023-05-18T04:52:55.890Z,7.98
2023-05-18T04:53:55.873Z,7.92
2023-05-18T04:54:55.893Z,7.99
2023-05-18T04:55:55.857Z,8.05
2023-05-18T04:56:55.845Z,8.09
2023-05-18T04:57:55.836Z,8.09
2023-05-18T04:58:55.825Z,8.05
2023-05-18T04:59:55.824Z,8.04
2023-05-18T05:00:55.807Z,8.10
2023-05-18T05:01:55.861Z,8.04
2023-05-18T05:02:55.932Z,8.06
2023-05-18T05:03:58.171Z,7.99
2023-05-18T05:04:55.773Z,8.20
2023-05-18T05:05:55.754Z,8.19
2023-05-18T05:06:55.750Z,8.26
2023-05-18T05:07:55.835Z,8.26
2023-05-18T05:08:55.734Z,8.21
2023-05-18T05:09:55.724Z,8.23
2023-05-18T05:10:55.709Z,8.34
2023-05-18T05:11:55.715Z,8.34
2023-05-18T05:12:55.698Z,8.38
2023-05-18T05:13:55.685Z,8.41
2023-05-18T05:14:55.672Z,8.38
2023-05-18T05:15:55.706Z,8.47
2023-05-18T05:16:55.661Z,8.53
2023-05-18T05:17:55.651Z,8.47
2023-05-18T05:18:55.665Z,8.57
2023-05-18T05:19:55.628Z,8.53
2023-05-18T05:20:55.637Z,8.57
2023-05-18T05:21:55.620Z,8.68
2023-05-18T05:22:55.639Z,8.70
2023-05-18T05:23:55.607Z,8.63
2023-05-18T05:24:55.593Z,8.70
2023-05-18T05:25:55.579Z,8.68
2023-05-18T05:26:55.578Z,8.71
2023-05-18T05:27:55.560Z,8.72
2023-05-18T05:28:55.548Z,8.72
2023-05-18T05:29:55.545Z,8.78
2023-05-18T05:30:55.540Z,8.72
2023-05-18T05:31:55.624Z,8.63
2023-05-18T05:32:55.540Z,8.70
2023-05-18T05:33:55.516Z,8.60
2023-05-18T05:34:55.500Z,8.59
2023-05-18T05:35:55.494Z,8.70
2023-05-18T05:36:55.478Z,8.65
2023-05-18T05:37:55.478Z,8.72
2023-05-18T05:38:55.460Z,8.78
2023-05-18T05:39:55.454Z,8.71
2023-05-18T05:40:55.443Z,8.62
2023-05-18T05:41:55.440Z,8.55
2023-05-18T05:42:55.431Z,8.49
2023-05-18T05:43:55.429Z,8.50
2023-05-18T05:44:55.411Z,8.57
2023-05-18T05:45:55.402Z,8.57
2023-05-18T05:46:55.405Z,8.55
2023-05-18T05:47:55.510Z,8.53
2023-05-18T05:48:55.386Z,8.53
2023-05-18T05:49:55.365Z,8.56
2023-05-18T05:50:55.368Z,8.55
2023-05-18T05:51:55.341Z,8.60
2023-05-18T05:52:55.343Z,8.57
2023-05-18T05:53:55.330Z,8.46
2023-05-18T05:54:55.338Z,8.39
2023-05-18T05:55:55.315Z,8.41
2023-05-18T05:56:55.324Z,8.31
2023-05-18T05:57:55.305Z,8.19
2023-05-18T05:58:55.295Z,8.17
2023-05-18T05:59:55.280Z,8.12
2023-05-18T06:00:55.277Z,8.17
2023-05-18T06:01:55.294Z,8.12
2023-05-18T06:02:55.304Z,8.05
2023-05-18T06:03:55.310Z,8.09
2023-05-18T06:04:55.239Z,8.12
2023-05-18T06:05:55.223Z,8.13
2023-05-18T06:06:55.225Z,8.06
2023-05-18T06:07:55.219Z,8.05
2023-05-18T06:08:55.211Z,8.06
2023-05-18T06:09:55.203Z,8.04
2023-05-18T06:10:55.199Z,8.13
2023-05-18T06:11:55.182Z,8.05
2023-05-18T06:12:55.175Z,8.02
2023-05-18T06:13:55.169Z,8.13
2023-05-18T06:14:55.149Z,8.21
2023-05-18T06:15:55.165Z,8.23
2023-05-18T06:16:55.175Z,8.23
2023-05-18T06:17:55.178Z,8.28
2023-05-18T06:18:55.135Z,8.32
2023-05-18T06:19:55.117Z,8.29
2023-05-18T06:20:55.109Z,8.34
2023-05-18T06:21:55.099Z,8.38
2023-05-18T06:22:55.089Z,8.50
2023-05-18T06:23:55.082Z,8.44
2023-05-18T06:24:55.078Z,8.52
2023-05-18T06:25:55.069Z,8.53
2023-05-18T06:26:55.049Z,8.53
2023-05-18T06:27:55.054Z,8.55
2023-05-18T06:28:55.047Z,8.52
2023-05-18T06:29:55.035Z,8.60
2023-05-18T06:30:55.027Z,8.70
2023-05-18T06:31:55.042Z,8.63
2023-05-18T06:32:55.071Z,8.78
2023-05-18T06:33:55.004Z,8.77
2023-05-18T06:34:54.992Z,8.81
2023-05-18T06:35:55.000Z,8.85
2023-05-18T06:36:54.983Z,8.99
2023-05-18T06:37:54.974Z,8.95
2023-05-18T06:38:54.974Z,9.06
2023-05-18T06:39:54.963Z,9.12
2023-05-18T06:40:54.948Z,9.12
2023-05-18T06:41:54.937Z,9.11
2023-05-18T06:42:54.930Z,9.24
2023-05-18T06:43:54.929Z,9.22
2023-05-18T06:44:54.917Z,9.30
2023-05-18T06:45:54.989Z,9.27
2023-05-18T06:46:54.888Z,9.30
2023-05-18T06:47:54.925Z,9.54
2023-05-18T06:48:54.894Z,9.55
2023-05-18T06:49:54.886Z,9.72
2023-05-18T06:50:54.868Z,9.73
2023-05-18T06:51:54.872Z,9.80
2023-05-18T06:52:54.853Z,9.84
2023-05-18T06:53:54.846Z,9.84
2023-05-18T06:54:54.839Z,9.96
2023-05-18T06:55:54.828Z,10.05
2023-05-18T06:56:54.820Z,10.14
2023-05-18T06:57:54.815Z,10.16
2023-05-18T06:58:54.800Z,10.18
2023-05-18T06:59:54.794Z,10.30
2023-05-18T07:00:54.788Z,10.39
2023-05-18T07:01:54.838Z,10.43
2023-05-18T07:02:54.817Z,10.57
2023-05-18T07:03:54.798Z,10.49
2023-05-18T07:04:54.760Z,10.58
2023-05-18T07:05:54.740Z,10.62
2023-05-18T07:06:54.736Z,10.64
2023-05-18T07:07:54.758Z,10.64
2023-05-18T07:08:54.720Z,10.68
2023-05-18T07:09:54.718Z,10.58
2023-05-18T07:10:54.708Z,10.73
2023-05-18T07:11:54.689Z,10.70
2023-05-18T07:12:54.701Z,10.87
2023-05-18T07:13:54.680Z,10.90
2023-05-18T07:14:54.673Z,10.83
2023-05-18T07:15:54.686Z,10.90
2023-05-18T07:16:54.668Z,10.91
2023-05-18T07:17:54.667Z,10.78
2023-05-18T07:18:54.662Z,10.83
2023-05-18T07:19:54.640Z,10.79
2023-05-18T07:20:54.623Z,10.73
2023-05-18T07:21:54.623Z,10.72
2023-05-18T07:22:54.609Z,10.86
2023-05-18T07:23:54.608Z,10.90
2023-05-18T07:24:54.605Z,10.98
2023-05-18T07:25:54.592Z,10.93
2023-05-18T07:26:54.581Z,11.00
2023-05-18T07:27:54.741Z,11.03
2023-05-18T07:28:54.560Z,11.04
2023-05-18T07:29:54.548Z,11.12
2023-05-18T07:30:54.546Z,11.05
2023-05-18T07:31:54.774Z,11.01
2023-05-18T07:32:54.560Z,11.08
2023-05-18T07:33:54.534Z,11.19
2023-05-18T07:34:54.518Z,11.18
2023-05-18T07:35:54.507Z,11.30
2023-05-18T07:36:54.501Z,11.54
2023-05-18T07:37:54.497Z,11.40
2023-05-18T07:38:54.487Z,11.41
2023-05-18T07:39:54.485Z,11.40
2023-05-18T07:40:54.474Z,11.52
2023-05-18T07:41:54.468Z,11.49
2023-05-18T07:42:54.453Z,11.51
2023-05-18T07:43:54.460Z,11.52
2023-05-18T07:44:54.446Z,11.38
2023-05-18T07:45:54.426Z,11.33
2023-05-18T07:46:54.487Z,11.34
2023-05-18T07:47:54.457Z,11.51
2023-05-18T07:48:54.418Z,11.55
2023-05-18T07:49:54.407Z,11.62
2023-05-18T07:50:54.400Z,11.59
2023-05-18T07:51:54.397Z,11.66
2023-05-18T07:52:54.397Z,11.64
2023-05-18T07:53:54.384Z,11.73
2023-05-18T07:54:54.375Z,11.76
2023-05-18T07:55:54.364Z,11.79
2023-05-18T07:56:54.353Z,11.79
2023-05-18T07:57:54.356Z,11.84
2023-05-18T07:58:54.357Z,11.93
2023-05-18T07:59:54.364Z,11.96
2023-05-18T08:00:54.353Z,11.97
2023-05-18T08:01:54.356Z,12.03
2023-05-18T08:02:54.424Z,12.10
2023-05-18T08:03:54.410Z,12.03
2023-05-18T08:04:54.297Z,12.03
2023-05-18T08:05:54.299Z,12.17
2023-05-18T08:06:54.286Z,12.28
2023-05-18T08:07:54.276Z,12.17
2023-05-18T08:08:54.272Z,12.17
2023-05-18T08:09:54.275Z,12.26
2023-05-18T08:10:54.261Z,12.21
2023-05-18T08:11:54.258Z,12.38
2023-05-18T08:12:54.244Z,12.43
2023-05-18T08:13:54.241Z,12.44
2023-05-18T08:14:54.233Z,12.44
2023-05-18T08:16:09.791Z,12.59
2023-05-18T08:16:54.257Z,12.65
2023-05-18T08:17:54.273Z,12.65
2023-05-18T08:18:54.238Z,12.65
2023-05-18T08:19:54.201Z,12.68
2023-05-18T08:20:54.195Z,12.66
2023-05-18T08:21:54.183Z,12.79
2023-05-18T08:22:54.183Z,12.73
2023-05-18T08:23:54.182Z,12.81
2023-05-18T08:24:54.162Z,12.88
2023-05-18T08:25:54.161Z,12.96
2023-05-18T08:26:54.159Z,13.06
2023-05-18T08:27:54.156Z,13.11
2023-05-18T08:28:54.131Z,13.20
2023-05-18T08:29:54.136Z,13.11
2023-05-18T08:30:54.126Z,13.20
2023-05-18T08:31:54.132Z,13.20
2023-05-18T08:32:54.161Z,13.36
2023-05-18T08:33:54.120Z,13.43
2023-05-18T08:34:54.102Z,13.47
2023-05-18T08:35:54.088Z,13.46
2023-05-18T08:36:54.085Z,13.54
2023-05-18T08:37:54.090Z,13.51
2023-05-18T08:38:54.077Z,13.45
2023-05-18T08:39:54.068Z,13.51
2023-05-18T08:40:54.059Z,13.57
2023-05-18T08:41:54.064Z,13.63
2023-05-18T08:42:54.067Z,13.60
2023-05-18T08:43:54.087Z,13.61
2023-05-18T08:44:54.040Z,13.63
2023-05-18T08:45:54.030Z,13.58
2023-05-18T08:46:54.020Z,13.60
2023-05-18T08:47:54.082Z,13.58
2023-05-18T08:48:54.128Z,13.63
2023-05-18T08:49:54.009Z,13.57
2023-05-18T08:50:54.009Z,13.55
2023-05-18T08:51:54.004Z,13.61
2023-05-18T08:52:53.991Z,13.71
2023-05-18T08:53:54.111Z,13.78
2023-05-18T08:54:53.972Z,13.73
2023-05-18T08:55:53.980Z,13.76
2023-05-18T08:56:53.969Z,13.80
2023-05-18T08:57:53.971Z,14.05
2023-05-18T08:58:53.960Z,14.16
2023-05-18T08:59:53.955Z,14.23
2023-05-18T09:00:53.951Z,14.36
2023-05-18T09:01:54.020Z,14.37
2023-05-18T09:02:53.958Z,14.40
2023-05-18T09:03:53.927Z,14.51
2023-05-18T09:04:53.966Z,14.61
2023-05-18T09:05:53.910Z,14.70
2023-05-18T09:06:53.906Z,14.95
2023-05-18T09:07:53.909Z,15.10
2023-05-18T09:08:53.943Z,15.25
2023-05-18T09:09:53.902Z,15.26
2023-05-18T09:10:53.888Z,15.43
2023-05-18T09:11:53.892Z,15.60
2023-05-18T09:12:53.879Z,15.76
2023-05-18T09:13:53.886Z,15.87
2023-05-18T09:14:53.872Z,15.95
2023-05-18T09:15:53.914Z,16.09
2023-05-18T09:16:53.862Z,15.91
2023-05-18T09:17:53.887Z,15.84
2023-05-18T09:18:53.919Z,15.81
2023-05-18T09:19:53.855Z,15.88
2023-05-18T09:20:53.854Z,15.72
2023-05-18T09:21:53.852Z,15.76
2023-05-18T09:22:53.841Z,15.83
2023-05-18T09:23:53.846Z,16.00
2023-05-18T09:24:53.838Z,16.02
2023-05-18T09:25:53.826Z,15.99
2023-05-18T09:26:53.823Z,16.06
2023-05-18T09:27:53.822Z,16.17
2023-05-18T09:28:53.827Z,16.17
2023-05-18T09:29:53.804Z,16.14
2023-05-18T09:30:53.808Z,16.25
2023-05-18T09:31:53.822Z,16.24
2023-05-18T09:32:53.938Z,16.36
2023-05-18T09:33:53.855Z,16.58
2023-05-18T09:34:53.802Z,16.65
2023-05-18T09:35:53.796Z,16.70
2023-05-18T09:36:53.793Z,16.88
2023-05-18T09:37:53.781Z,17.06
2023-05-18T09:38:53.791Z,17.10
2023-05-18T09:39:53.784Z,17.17
2023-05-18T09:40:53.783Z,17.20
2023-05-18T09:41:53.768Z,17.38
2023-05-18T09:42:53.776Z,17.65
2023-05-18T09:43:53.776Z,17.63
2023-05-18T09:44:53.784Z,17.62
2023-05-18T09:45:53.766Z,17.68
2023-05-18T09:46:53.831Z,17.88
2023-05-18T09:47:53.823Z,18.03
2023-05-18T09:48:53.758Z,18.03
2023-05-18T09:49:53.759Z,17.96
2023-05-18T09:50:53.768Z,18.09
2023-05-18T09:51:53.810Z,18.13
2023-05-18T09:52:53.763Z,18.24
2023-05-18T09:53:53.755Z,18.42
2023-05-18T09:54:53.751Z,18.13
2023-05-18T09:55:53.743Z,18.01
2023-05-18T09:57:09.055Z,17.94
2023-05-18T09:57:53.754Z,18.05
2023-05-18T09:58:53.809Z,17.94
2023-05-18T09:59:53.749Z,18.09
2023-05-18T10:00:53.881Z,18.30
2023-05-18T10:01:53.760Z,18.26
2023-05-18T10:02:53.808Z,18.09
2023-05-18T10:03:53.829Z,17.78
2023-05-18T10:04:53.783Z,17.81
2023-05-18T10:05:53.752Z,17.93
2023-05-18T10:06:53.743Z,18.27
2023-05-18T10:07:53.759Z,18.48
2023-05-18T10:08:53.782Z,18.68
2023-05-18T10:09:53.789Z,18.89
2023-05-18T10:10:53.806Z,19.07
2023-05-18T10:11:53.758Z,19.13
2023-05-18T10:12:53.904Z,19.08
2023-05-18T10:13:53.787Z,19.04
2023-05-18T10:14:53.739Z,19.01
2023-05-18T10:15:53.792Z,19.15
2023-05-18T10:17:03.543Z,18.91
2023-05-18T10:17:53.879Z,19.05
2023-05-18T10:18:53.837Z,19.24
2023-05-18T10:19:53.769Z,19.42
2023-05-18T10:20:53.756Z,19.53
2023-05-18T10:21:53.833Z,19.41
2023-05-18T10:22:53.827Z,19.57
2023-05-18T10:23:53.778Z,19.74
2023-05-18T10:24:53.829Z,19.68
2023-05-18T10:25:53.737Z,19.67
2023-05-18T10:26:54.705Z,19.60
2023-05-18T10:27:53.758Z,19.44
2023-05-18T10:28:53.745Z,19.54
2023-05-18T10:29:53.740Z,19.38
2023-05-18T10:30:53.791Z,19.30
2023-05-18T10:31:53.740Z,19.27
2023-05-18T10:32:53.821Z,19.31
2023-05-18T10:33:53.751Z,19.45
2023-05-18T10:34:53.759Z,19.68
2023-05-18T10:35:53.783Z,19.56
2023-05-18T10:36:53.777Z,19.47
2023-05-18T10:37:53.746Z,19.52
2023-05-18T10:38:53.749Z,19.68
2023-05-18T10:39:53.746Z,19.59
2023-05-18T10:40:53.746Z,19.74
2023-05-18T10:41:53.746Z,20.08
2023-05-18T10:42:53.757Z,20.37
2023-05-18T10:43:53.746Z,20.53
2023-05-18T10:44:53.765Z,20.53
2023-05-18T10:45:53.789Z,20.41
2023-05-18T10:46:53.832Z,19.89
2023-05-18T10:47:53.912Z,19.52
2023-05-18T10:48:53.757Z,19.56
2023-05-18T10:49:53.807Z,19.59
2023-05-18T10:50:53.759Z,19.96
2023-05-18T10:51:53.774Z,19.64
2023-05-18T10:52:53.766Z,19.77
2023-05-18T10:53:55.272Z,19.77
2023-05-18T10:54:53.768Z,20.27
2023-05-18T10:55:53.774Z,19.75
2023-05-18T10:56:53.765Z,19.59
2023-05-18T10:57:53.763Z,19.49
2023-05-18T10:58:53.770Z,19.75
2023-05-18T10:59:53.772Z,20.05
2023-05-18T11:00:53.768Z,20.33
2023-05-18T11:01:53.855Z,20.37
2023-05-18T11:02:53.822Z,20.41
2023-05-18T11:03:53.798Z,20.49
2023-05-18T11:04:54.323Z,20.41
2023-05-18T11:05:53.774Z,20.39
2023-05-18T11:06:53.792Z,20.32
2023-05-18T11:07:53.788Z,19.70
2023-05-18T11:08:53.796Z,19.31
2023-05-18T11:09:53.793Z,19.35
2023-05-18T11:10:53.786Z,19.19
2023-05-18T11:11:53.798Z,19.17
2023-05-18T11:12:53.783Z,19.09
2023-05-18T11:13:53.801Z,19.16
2023-05-18T11:14:53.780Z,18.98
2023-05-18T11:15:53.997Z,18.93
2023-05-18T11:16:53.827Z,18.93
2023-05-18T11:17:53.845Z,19.07
2023-05-18T11:18:53.830Z,19.05
2023-05-18T11:19:53.785Z,19.05
2023-05-18T11:20:53.796Z,19.15
2023-05-18T11:21:53.804Z,19.08
2023-05-18T11:22:53.803Z,19.08
2023-05-18T11:23:53.793Z,19.13
2023-05-18T11:24:53.794Z,19.19
2023-05-18T11:25:53.794Z,19.20
2023-05-18T11:26:53.839Z,19.31
2023-05-18T11:27:53.790Z,19.23
2023-05-18T11:28:53.812Z,19.24
2023-05-18T11:30:07.607Z,19.22
2023-05-18T11:30:53.800Z,19.24
2023-05-18T11:31:53.923Z,19.24
2023-05-18T11:32:53.886Z,19.20
2023-05-18T11:33:53.795Z,19.38
2023-05-18T11:34:53.798Z,19.08
2023-05-18T11:35:53.794Z,19.05
2023-05-18T11:36:53.827Z,19.01
2023-05-18T11:37:53.786Z,19.16
2023-05-18T11:38:53.863Z,19.20
2023-05-18T11:39:59.674Z,19.27
2023-05-18T11:40:53.786Z,19.44
2023-05-18T11:41:53.800Z,19.44
2023-05-18T11:42:53.781Z,19.57
2023-05-18T11:43:53.771Z,19.75
2023-05-18T11:44:53.775Z,19.74
2023-05-18T11:45:53.774Z,19.57
2023-05-18T11:46:53.775Z,19.57
2023-05-18T11:47:53.860Z,19.62
2023-05-18T11:48:53.801Z,19.67
2023-05-18T11:49:53.796Z,19.62
2023-05-18T11:50:53.758Z,19.59
2023-05-18T11:51:53.815Z,19.50
2023-05-18T11:52:53.760Z,19.59
2023-05-18T11:53:53.762Z,19.59
2023-05-18T11:54:53.751Z,19.56
2023-05-18T11:55:53.752Z,19.53
2023-05-18T11:56:53.740Z,19.56
2023-05-18T11:57:53.742Z,19.60
2023-05-18T11:58:53.745Z,19.08
2023-05-18T11:59:53.738Z,19.12
2023-05-18T12:00:53.736Z,19.23
2023-05-18T12:01:53.776Z,19.27
2023-05-18T12:02:53.809Z,19.12
2023-05-18T12:03:53.837Z,19.34
2023-05-18T12:04:53.741Z,19.20
2023-05-18T12:05:53.715Z,19.01
2023-05-18T12:06:53.709Z,19.23
2023-05-18T12:07:53.722Z,19.17
2023-05-18T12:08:53.712Z,19.17
2023-05-18T12:09:53.704Z,18.86
2023-05-18T12:10:53.713Z,18.75
2023-05-18T12:11:53.738Z,18.70
2023-05-18T12:12:53.696Z,18.71
2023-05-18T12:13:53.688Z,18.66
2023-05-18T12:14:53.687Z,19.00
2023-05-18T12:15:53.698Z,19.04
2023-05-18T12:16:53.773Z,19.15
2023-05-18T12:17:53.723Z,19.26
2023-05-18T12:18:53.757Z,19.44
2023-05-18T12:19:53.683Z,19.59
2023-05-18T12:20:53.669Z,19.74
2023-05-18T12:21:53.659Z,19.71
2023-05-18T12:22:53.783Z,19.77
2023-05-18T12:23:53.672Z,19.71
2023-05-18T12:24:53.656Z,19.78
2023-05-18T12:25:53.669Z,19.79
2023-05-18T12:26:53.655Z,19.79
2023-05-18T12:27:53.665Z,19.96
2023-05-18T12:28:53.637Z,19.94
2023-05-18T12:29:53.639Z,19.86
2023-05-18T12:30:53.656Z,19.74
2023-05-18T12:31:53.633Z,19.86
2023-05-18T12:32:53.700Z,20.02
2023-05-18T12:33:53.627Z,19.90
2023-05-18T12:34:53.634Z,19.77
2023-05-18T12:35:53.633Z,19.59
2023-05-18T12:36:53.618Z,19.44
2023-05-18T12:37:53.617Z,19.42
2023-05-18T12:38:53.624Z,19.56
2023-05-18T12:39:53.625Z,19.90
2023-05-18T12:40:53.604Z,20.02
2023-05-18T12:41:53.602Z,20.05
2023-05-18T12:42:53.678Z,19.96
2023-05-18T12:43:53.591Z,19.72
2023-05-18T12:44:53.596Z,19.59
2023-05-18T12:45:53.635Z,19.56
2023-05-18T12:46:53.652Z,19.41
2023-05-18T12:47:53.659Z,19.27
2023-05-18T12:48:53.586Z,19.31
2023-05-18T12:49:53.602Z,19.32
2023-05-18T12:50:53.591Z,19.37
2023-05-18T12:51:53.572Z,19.34
2023-05-18T12:52:53.609Z,19.54
2023-05-18T12:53:53.564Z,19.54
2023-05-18T12:54:53.559Z,19.74
2023-05-18T12:55:53.554Z,19.72
2023-05-18T12:56:53.554Z,19.71
2023-05-18T12:57:53.560Z,19.86
2023-05-18T12:58:53.549Z,19.94
2023-05-18T12:59:53.548Z,20.09
2023-05-18T13:00:53.541Z,20.18
2023-05-18T13:01:53.549Z,20.14
2023-05-18T13:02:53.585Z,20.22
2023-05-18T13:03:53.597Z,20.04
2023-05-18T13:04:53.538Z,19.89
2023-05-18T13:05:53.527Z,19.86